sensor_id;sensor_type;location;lat;lon;timestamp;temperature;humidity
3994;DHT22;2011;48.238;13.948;2023-05-20T00:02:10;14.10;99.90
3994;DHT22;2011;48.238;13.948;2023-05-20T00:04:37;14.10;99.90
3994;DHT22;2011;48.238;13.948;2023-05-20T00:07:05;14.10;99.90
3994;DHT22;2011;48.238;13.948;2023-05-20T00:09:32;14.00;99.90
3994;DHT22;2011;48.238;13.948;2023-05-20T00:12:00;14.00;99.90
3994;DHT22;2011;48.238;13.948;2023-05-20T00:14:27;14.00;99.90
3994;DHT22;2011;48.238;13.948;2023-05-20T00:16:54;14.00;99.90
3994;DHT22;2011;48.238;13.948;2023-05-20T00:19:21;13.90;99.90
3994;DHT22;2011;48.238;13.948;2023-05-20T00:21:47;13.90;99.90
3994;DHT22;2011;48.238;13.948;2023-05-20T00:24:14;13.90;99.90
3994;DHT22;2011;48.238;13.948;2023-05-20T00:26:41;13.80;99.90
3994;DHT22;2011;48.238;13.948;2023-05-20T00:29:09;13.80;99.90
3994;DHT22;2011;48.238;13.948;2023-05-20T00:31:36;13.80;99.90
3994;DHT22;2011;48.238;13.948;2023-05-20T00:34:03;13.80;99.90
3994;DHT22;2011;48.238;13.948;2023-05-20T00:36:30;13.80;99.90
3994;DHT22;2011;48.238;13.948;2023-05-20T00:38:57;13.80;99.90
3994;DHT22;2011;48.238;13.948;2023-05-20T00:41:24;13.80;99.90
3994;DHT22;2011;48.238;13.948;2023-05-20T00:43:52;13.80;99.90
3994;DHT22;2011;48.238;13.948;2023-05-20T00:46:21;13.80;99.90
3994;DHT22;2011;48.238;13.948;2023-05-20T00:48:49;13.80;99.90
3994;DHT22;2011;48.238;13.948;2023-05-20T00:51:16;13.80;99.90
3994;DHT22;2011;48.238;13.948;2023-05-20T00:53:43;13.70;99.90
3994;DHT22;2011;48.238;13.948;2023-05-20T00:56:11;13.70;99.90
3994;DHT22;2011;48.238;13.948;2023-05-20T00:58:39;13.70;99.90
3994;DHT22;2011;48.238;13.948;2023-05-20T01:01:06;13.70;99.90
3994;DHT22;2011;48.238;13.948;2023-05-20T01:03:34;13.70;99.90
3994;DHT22;2011;48.238;13.948;2023-05-20T01:06:01;13.70;99.90
3994;DHT22;2011;48.238;13.948;2023-05-20T01:08:28;13.70;99.90
3994;DHT22;2011;48.238;13.948;2023-05-20T01:11:00;13.70;99.90
3994;DHT22;2011;48.238;13.948;2023-05-20T01:13:33;13.70;99.90
3994;DHT22;2011;48.238;13.948;2023-05-20T01:16:03;13.70;99.90
3994;DHT22;2011;48.238;13.948;2023-05-20T01:18:31;13.70;99.90
3994;DHT22;2011;48.238;13.948;2023-05-20T01:21:01;13.70;99.90
3994;DHT22;2011;48.238;13.948;2023-05-20T01:23:37;13.60;99.90
3994;DHT22;2011;48.238;13.948;2023-05-20T01:26:04;13.60;99.90
3994;DHT22;2011;48.238;13.948;2023-05-20T01:28:32;13.60;99.90
3994;DHT22;2011;48.238;13.948;2023-05-20T01:31:00;13.60;99.90
3994;DHT22;2011;48.238;13.948;2023-05-20T01:33:29;13.60;99.90
3994;DHT22;2011;48.238;13.948;2023-05-20T01:35:57;13.60;99.90
3994;DHT22;2011;48.238;13.948;2023-05-20T01:38:25;13.60;99.90
3994;DHT22;2011;48.238;13.948;2023-05-20T01:40:54;13.60;99.90
3994;DHT22;2011;48.238;13.948;2023-05-20T01:43:24;13.60;99.90
3994;DHT22;2011;48.238;13.948;2023-05-20T01:45:51;13.60;99.90
3994;DHT22;2011;48.238;13.948;2023-05-20T01:48:18;13.60;99.90
3994;DHT22;2011;48.238;13.948;2023-05-20T01:50:45;13.60;99.90
3994;DHT22;2011;48.238;13.948;2023-05-20T01:53:12;13.60;99.90
3994;DHT22;2011;48.238;13.948;2023-05-20T01:55:39;13.60;99.90
3994;DHT22;2011;48.238;13.948;2023-05-20T01:58:07;13.60;99.90
3994;DHT22;2011;48.238;13.948;2023-05-20T02:00:34;13.60;99.90
3994;DHT22;2011;48.238;13.948;2023-05-20T02:03:01;13.60;99.90
3994;DHT22;2011;48.238;13.948;2023-05-20T02:05:28;13.50;99.90
3994;DHT22;2011;48.238;13.948;2023-05-20T02:07:55;13.50;99.90
3994;DHT22;2011;48.238;13.948;2023-05-20T02:10:22;13.50;99.90
3994;DHT22;2011;48.238;13.948;2023-05-20T02:12:49;13.50;99.90
3994;DHT22;2011;48.238;13.948;2023-05-20T02:15:17;13.50;99.90
3994;DHT22;2011;48.238;13.948;2023-05-20T02:17:45;13.50;99.90
3994;DHT22;2011;48.238;13.948;2023-05-20T02:20:12;13.50;99.90
3994;DHT22;2011;48.238;13.948;2023-05-20T02:22:39;13.40;99.90
3994;DHT22;2011;48.238;13.948;2023-05-20T02:25:07;13.40;99.90
3994;DHT22;2011;48.238;13.948;2023-05-20T02:27:35;13.40;99.90
3994;DHT22;2011;48.238;13.948;2023-05-20T02:30:02;13.40;99.90
3994;DHT22;2011;48.238;13.948;2023-05-20T02:32:30;13.40;99.90
3994;DHT22;2011;48.238;13.948;2023-05-20T02:34:58;13.40;99.90
3994;DHT22;2011;48.238;13.948;2023-05-20T02:37:25;13.40;99.90
3994;DHT22;2011;48.238;13.948;2023-05-20T02:39:53;13.40;99.90
3994;DHT22;2011;48.238;13.948;2023-05-20T02:42:20;13.40;99.90
3994;DHT22;2011;48.238;13.948;2023-05-20T02:44:47;13.30;99.90
3994;DHT22;2011;48.238;13.948;2023-05-20T02:47:14;13.40;99.90
3994;DHT22;2011;48.238;13.948;2023-05-20T02:49:43;13.40;99.90
3994;DHT22;2011;48.238;13.948;2023-05-20T02:52:11;13.30;99.90
3994;DHT22;2011;48.238;13.948;2023-05-20T02:54:38;13.30;99.90
3994;DHT22;2011;48.238;13.948;2023-05-20T02:57:05;13.30;99.90
3994;DHT22;2011;48.238;13.948;2023-05-20T02:59:32;13.30;99.90
3994;DHT22;2011;48.238;13.948;2023-05-20T03:01:59;13.30;99.90
3994;DHT22;2011;48.238;13.948;2023-05-20T03:04:26;13.30;99.90
3994;DHT22;2011;48.238;13.948;2023-05-20T03:06:54;13.30;99.90
3994;DHT22;2011;48.238;13.948;2023-05-20T03:09:22;13.30;99.90
3994;DHT22;2011;48.238;13.948;2023-05-20T03:11:49;13.30;99.90
3994;DHT22;2011;48.238;13.948;2023-05-20T03:14:16;13.30;99.90
3994;DHT22;2011;48.238;13.948;2023-05-20T03:16:43;13.30;99.90
3994;DHT22;2011;48.238;13.948;2023-05-20T03:19:11;13.30;99.90
3994;DHT22;2011;48.238;13.948;2023-05-20T03:21:38;13.30;99.90
3994;DHT22;2011;48.238;13.948;2023-05-20T03:24:06;13.30;99.90
3994;DHT22;2011;48.238;13.948;2023-05-20T03:26:33;13.30;99.90
3994;DHT22;2011;48.238;13.948;2023-05-20T03:29:02;13.30;99.90
3994;DHT22;2011;48.238;13.948;2023-05-20T03:31:29;13.30;99.90
3994;DHT22;2011;48.238;13.948;2023-05-20T03:33:56;13.30;99.90
3994;DHT22;2011;48.238;13.948;2023-05-20T03:36:23;13.30;99.90
3994;DHT22;2011;48.238;13.948;2023-05-20T03:38:50;13.30;99.90
3994;DHT22;2011;48.238;13.948;2023-05-20T03:41:19;13.30;99.90
3994;DHT22;2011;48.238;13.948;2023-05-20T03:43:46;13.30;99.90
3994;DHT22;2011;48.238;13.948;2023-05-20T03:46:14;13.30;99.90
3994;DHT22;2011;48.238;13.948;2023-05-20T03:48:40;13.30;99.90
3994;DHT22;2011;48.238;13.948;2023-05-20T03:51:08;13.30;99.90
3994;DHT22;2011;48.238;13.948;2023-05-20T03:53:35;13.30;99.90
3994;DHT22;2011;48.238;13.948;2023-05-20T03:56:02;13.30;99.90
3994;DHT22;2011;48.238;13.948;2023-05-20T03:58:30;13.30;99.90
3994;DHT22;2011;48.238;13.948;2023-05-20T04:00:57;13.30;99.90
3994;DHT22;2011;48.238;13.948;2023-05-20T04:03:24;13.30;99.90
3994;DHT22;2011;48.238;13.948;2023-05-20T04:05:53;13.20;99.90
3994;DHT22;2011;48.238;13.948;2023-05-20T04:08:20;13.20;99.90
3994;DHT22;2011;48.238;13.948;2023-05-20T04:10:50;13.10;99.90
3994;DHT22;2011;48.238;13.948;2023-05-20T04:13:17;13.10;99.90
3994;DHT22;2011;48.238;13.948;2023-05-20T04:15:46;13.20;99.90
3994;DHT22;2011;48.238;13.948;2023-05-20T04:18:13;13.20;99.90
3994;DHT22;2011;48.238;13.948;2023-05-20T04:20:40;13.20;99.90
3994;DHT22;2011;48.238;13.948;2023-05-20T04:23:06;13.20;99.90
3994;DHT22;2011;48.238;13.948;2023-05-20T04:25:33;13.20;99.90
3994;DHT22;2011;48.238;13.948;2023-05-20T04:28:01;13.20;99.90
3994;DHT22;2011;48.238;13.948;2023-05-20T04:30:28;13.20;99.90
3994;DHT22;2011;48.238;13.948;2023-05-20T04:32:59;13.30;99.90
3994;DHT22;2011;48.238;13.948;2023-05-20T04:35:27;13.20;99.90
3994;DHT22;2011;48.238;13.948;2023-05-20T04:37:54;13.30;99.90
3994;DHT22;2011;48.238;13.948;2023-05-20T04:40:21;13.30;99.90
3994;DHT22;2011;48.238;13.948;2023-05-20T04:42:48;13.40;99.90
3994;DHT22;2011;48.238;13.948;2023-05-20T04:45:15;13.40;99.90
3994;DHT22;2011;48.238;13.948;2023-05-20T04:47:43;13.40;99.90
3994;DHT22;2011;48.238;13.948;2023-05-20T04:50:12;13.40;99.90
3994;DHT22;2011;48.238;13.948;2023-05-20T04:52:39;13.50;99.90
3994;DHT22;2011;48.238;13.948;2023-05-20T04:55:08;13.50;99.90
3994;DHT22;2011;48.238;13.948;2023-05-20T04:57:35;13.60;99.90
3994;DHT22;2011;48.238;13.948;2023-05-20T05:00:05;13.70;99.90
3994;DHT22;2011;48.238;13.948;2023-05-20T05:02:32;13.80;99.90
3994;DHT22;2011;48.238;13.948;2023-05-20T05:05:00;13.90;99.90
3994;DHT22;2011;48.238;13.948;2023-05-20T05:07:28;13.90;99.90
3994;DHT22;2011;48.238;13.948;2023-05-20T05:09:55;14.10;99.90
3994;DHT22;2011;48.238;13.948;2023-05-20T05:12:22;14.20;99.90
3994;DHT22;2011;48.238;13.948;2023-05-20T05:14:49;14.30;99.90
3994;DHT22;2011;48.238;13.948;2023-05-20T05:17:16;14.40;99.90
3994;DHT22;2011;48.238;13.948;2023-05-20T05:19:43;14.50;99.90
3994;DHT22;2011;48.238;13.948;2023-05-20T05:22:10;14.60;99.90
3994;DHT22;2011;48.238;13.948;2023-05-20T05:24:39;14.60;99.90
3994;DHT22;2011;48.238;13.948;2023-05-20T05:27:06;14.70;99.90
3994;DHT22;2011;48.238;13.948;2023-05-20T05:29:33;14.80;99.90
3994;DHT22;2011;48.238;13.948;2023-05-20T05:32:00;14.80;99.90
3994;DHT22;2011;48.238;13.948;2023-05-20T05:34:27;14.90;99.90
3994;DHT22;2011;48.238;13.948;2023-05-20T05:36:54;15.00;99.90
3994;DHT22;2011;48.238;13.948;2023-05-20T05:39:21;15.00;99.90
3994;DHT22;2011;48.238;13.948;2023-05-20T05:41:49;15.10;99.90
3994;DHT22;2011;48.238;13.948;2023-05-20T05:44:18;15.10;99.90
3994;DHT22;2011;48.238;13.948;2023-05-20T05:46:45;15.10;99.90
3994;DHT22;2011;48.238;13.948;2023-05-20T05:49:12;15.20;99.90
3994;DHT22;2011;48.238;13.948;2023-05-20T05:51:39;15.30;99.90
3994;DHT22;2011;48.238;13.948;2023-05-20T05:54:06;15.30;99.90
3994;DHT22;2011;48.238;13.948;2023-05-20T05:56:33;15.30;99.90
3994;DHT22;2011;48.238;13.948;2023-05-20T05:59:02;15.30;99.90
3994;DHT22;2011;48.238;13.948;2023-05-20T06:01:30;15.30;99.90
3994;DHT22;2011;48.238;13.948;2023-05-20T06:03:57;15.30;99.90
3994;DHT22;2011;48.238;13.948;2023-05-20T06:06:24;15.20;99.90
3994;DHT22;2011;48.238;13.948;2023-05-20T06:08:51;15.10;99.90
3994;DHT22;2011;48.238;13.948;2023-05-20T06:11:18;15.10;99.90
3994;DHT22;2011;48.238;13.948;2023-05-20T06:13:47;15.00;99.90
3994;DHT22;2011;48.238;13.948;2023-05-20T06:16:15;15.00;99.90
3994;DHT22;2011;48.238;13.948;2023-05-20T06:18:42;15.00;99.90
3994;DHT22;2011;48.238;13.948;2023-05-20T06:21:09;15.10;99.90
3994;DHT22;2011;48.238;13.948;2023-05-20T06:23:36;15.10;99.90
3994;DHT22;2011;48.238;13.948;2023-05-20T06:26:03;15.20;99.90
3994;DHT22;2011;48.238;13.948;2023-05-20T06:28:30;15.20;99.90
3994;DHT22;2011;48.238;13.948;2023-05-20T06:30:57;15.30;99.90
3994;DHT22;2011;48.238;13.948;2023-05-20T06:33:26;15.30;99.90
3994;DHT22;2011;48.238;13.948;2023-05-20T06:35:54;15.30;99.90
3994;DHT22;2011;48.238;13.948;2023-05-20T06:38:21;15.40;99.90
3994;DHT22;2011;48.238;13.948;2023-05-20T06:40:48;15.50;99.90
3994;DHT22;2011;48.238;13.948;2023-05-20T06:43:15;15.60;99.90
3994;DHT22;2011;48.238;13.948;2023-05-20T06:45:42;15.60;99.90
3994;DHT22;2011;48.238;13.948;2023-05-20T06:48:09;15.70;99.90
3994;DHT22;2011;48.238;13.948;2023-05-20T06:50:38;15.80;99.90
3994;DHT22;2011;48.238;13.948;2023-05-20T06:53:04;15.90;99.90
3994;DHT22;2011;48.238;13.948;2023-05-20T06:55:31;16.10;99.90
3994;DHT22;2011;48.238;13.948;2023-05-20T06:57:58;16.20;99.90
3994;DHT22;2011;48.238;13.948;2023-05-20T07:00:25;16.30;99.90
3994;DHT22;2011;48.238;13.948;2023-05-20T07:02:52;16.30;99.90
3994;DHT22;2011;48.238;13.948;2023-05-20T07:05:19;16.40;99.90
3994;DHT22;2011;48.238;13.948;2023-05-20T07:07:47;16.50;99.90
3994;DHT22;2011;48.238;13.948;2023-05-20T07:10:14;16.50;99.90
3994;DHT22;2011;48.238;13.948;2023-05-20T07:12:41;16.60;99.90
3994;DHT22;2011;48.238;13.948;2023-05-20T07:15:08;16.70;99.90
3994;DHT22;2011;48.238;13.948;2023-05-20T07:17:35;16.60;99.90
3994;DHT22;2011;48.238;13.948;2023-05-20T07:20:02;16.70;99.90
3994;DHT22;2011;48.238;13.948;2023-05-20T07:22:29;16.80;99.90
3994;DHT22;2011;48.238;13.948;2023-05-20T07:24:58;16.80;99.90
3994;DHT22;2011;48.238;13.948;2023-05-20T07:27:25;16.80;99.90
3994;DHT22;2011;48.238;13.948;2023-05-20T07:29:52;16.90;99.90
3994;DHT22;2011;48.238;13.948;2023-05-20T07:32:19;17.00;99.90
3994;DHT22;2011;48.238;13.948;2023-05-20T07:34:46;17.00;99.90
3994;DHT22;2011;48.238;13.948;2023-05-20T07:37:13;17.10;99.90
3994;DHT22;2011;48.238;13.948;2023-05-20T07:39:40;17.10;99.90
3994;DHT22;2011;48.238;13.948;2023-05-20T07:42:08;17.10;99.90
3994;DHT22;2011;48.238;13.948;2023-05-20T07:44:35;17.00;99.90
3994;DHT22;2011;48.238;13.948;2023-05-20T07:47:02;17.10;99.90
3994;DHT22;2011;48.238;13.948;2023-05-20T07:49:29;17.00;99.90
3994;DHT22;2011;48.238;13.948;2023-05-20T07:51:56;17.20;99.90
3994;DHT22;2011;48.238;13.948;2023-05-20T07:54:23;17.40;99.90
3994;DHT22;2011;48.238;13.948;2023-05-20T07:56:50;17.50;99.90
3994;DHT22;2011;48.238;13.948;2023-05-20T07:59:18;17.70;99.90
3994;DHT22;2011;48.238;13.948;2023-05-20T08:01:45;17.80;99.90
3994;DHT22;2011;48.238;13.948;2023-05-20T08:04:12;17.90;99.90
3994;DHT22;2011;48.238;13.948;2023-05-20T08:06:39;18.00;99.90
3994;DHT22;2011;48.238;13.948;2023-05-20T08:09:06;17.90;99.90
3994;DHT22;2011;48.238;13.948;2023-05-20T08:11:33;17.90;99.90
3994;DHT22;2011;48.238;13.948;2023-05-20T08:14:00;17.90;99.90
3994;DHT22;2011;48.238;13.948;2023-05-20T08:16:29;17.90;99.90
3994;DHT22;2011;48.238;13.948;2023-05-20T08:18:55;17.70;99.90
3994;DHT22;2011;48.238;13.948;2023-05-20T08:21:22;17.60;99.90
3994;DHT22;2011;48.238;13.948;2023-05-20T08:23:49;17.70;99.90
3994;DHT22;2011;48.238;13.948;2023-05-20T08:26:16;17.70;99.90
3994;DHT22;2011;48.238;13.948;2023-05-20T08:28:43;17.70;99.90
3994;DHT22;2011;48.238;13.948;2023-05-20T08:31:11;17.80;99.90
3994;DHT22;2011;48.238;13.948;2023-05-20T08:33:39;17.80;99.90
3994;DHT22;2011;48.238;13.948;2023-05-20T08:36:06;17.80;99.90
3994;DHT22;2011;48.238;13.948;2023-05-20T08:38:33;17.80;99.90
3994;DHT22;2011;48.238;13.948;2023-05-20T08:41:01;17.90;99.90
3994;DHT22;2011;48.238;13.948;2023-05-20T08:43:28;17.90;99.90
3994;DHT22;2011;48.238;13.948;2023-05-20T08:45:57;18.00;99.90
3994;DHT22;2011;48.238;13.948;2023-05-20T08:48:25;18.00;99.90
3994;DHT22;2011;48.238;13.948;2023-05-20T08:50:56;18.10;99.90
3994;DHT22;2011;48.238;13.948;2023-05-20T08:53:24;18.20;99.90
3994;DHT22;2011;48.238;13.948;2023-05-20T08:55:53;18.20;99.90
3994;DHT22;2011;48.238;13.948;2023-05-20T08:58:22;18.30;99.90
3994;DHT22;2011;48.238;13.948;2023-05-20T09:00:49;18.40;99.90
3994;DHT22;2011;48.238;13.948;2023-05-20T09:03:17;18.40;99.90
3994;DHT22;2011;48.238;13.948;2023-05-20T09:05:45;18.60;99.90
3994;DHT22;2011;48.238;13.948;2023-05-20T09:08:13;18.60;99.90
3994;DHT22;2011;48.238;13.948;2023-05-20T09:10:40;18.80;99.90
3994;DHT22;2011;48.238;13.948;2023-05-20T09:13:09;19.00;99.90
3994;DHT22;2011;48.238;13.948;2023-05-20T09:15:36;19.20;99.90
3994;DHT22;2011;48.238;13.948;2023-05-20T09:18:05;19.30;99.90
3994;DHT22;2011;48.238;13.948;2023-05-20T09:20:34;19.40;99.90
3994;DHT22;2011;48.238;13.948;2023-05-20T09:23:03;19.50;99.90
3994;DHT22;2011;48.238;13.948;2023-05-20T09:25:32;19.50;99.90
3994;DHT22;2011;48.238;13.948;2023-05-20T09:27:59;19.60;99.90
3994;DHT22;2011;48.238;13.948;2023-05-20T09:30:26;19.80;99.90
3994;DHT22;2011;48.238;13.948;2023-05-20T09:32:53;20.10;99.90
3994;DHT22;2011;48.238;13.948;2023-05-20T09:35:21;20.30;99.90
3994;DHT22;2011;48.238;13.948;2023-05-20T09:37:51;20.60;99.90
3994;DHT22;2011;48.238;13.948;2023-05-20T09:40:22;20.80;99.90
3994;DHT22;2011;48.238;13.948;2023-05-20T09:42:53;20.90;99.90
3994;DHT22;2011;48.238;13.948;2023-05-20T09:45:20;21.00;99.90
3994;DHT22;2011;48.238;13.948;2023-05-20T09:47:50;21.10;99.90
3994;DHT22;2011;48.238;13.948;2023-05-20T09:50:18;21.10;99.90
3994;DHT22;2011;48.238;13.948;2023-05-20T09:52:47;21.10;99.90
3994;DHT22;2011;48.238;13.948;2023-05-20T09:55:15;21.20;99.90
3994;DHT22;2011;48.238;13.948;2023-05-20T09:57:42;21.30;99.90
3994;DHT22;2011;48.238;13.948;2023-05-20T10:00:12;21.40;99.90
3994;DHT22;2011;48.238;13.948;2023-05-20T10:02:42;21.50;99.90
3994;DHT22;2011;48.238;13.948;2023-05-20T10:05:14;21.60;99.90
3994;DHT22;2011;48.238;13.948;2023-05-20T10:07:58;21.70;99.90
3994;DHT22;2011;48.238;13.948;2023-05-20T10:10:35;21.90;99.90
3994;DHT22;2011;48.238;13.948;2023-05-20T10:13:13;22.30;99.90
3994;DHT22;2011;48.238;13.948;2023-05-20T10:15:48;22.60;99.90
3994;DHT22;2011;48.238;13.948;2023-05-20T10:18:25;22.90;99.90
3994;DHT22;2011;48.238;13.948;2023-05-20T10:20:55;22.90;99.90
3994;DHT22;2011;48.238;13.948;2023-05-20T10:23:23;22.60;99.90
3994;DHT22;2011;48.238;13.948;2023-05-20T10:25:50;22.40;99.90
3994;DHT22;2011;48.238;13.948;2023-05-20T10:28:27;22.20;99.90
3994;DHT22;2011;48.238;13.948;2023-05-20T10:30:56;22.00;99.90
3994;DHT22;2011;48.238;13.948;2023-05-20T10:33:25;22.00;99.90
3994;DHT22;2011;48.238;13.948;2023-05-20T10:35:53;22.20;99.90
3994;DHT22;2011;48.238;13.948;2023-05-20T10:38:20;22.50;99.90
3994;DHT22;2011;48.238;13.948;2023-05-20T10:40:47;22.70;99.90
3994;DHT22;2011;48.238;13.948;2023-05-20T10:43:15;22.80;99.90
3994;DHT22;2011;48.238;13.948;2023-05-20T10:45:50;22.80;99.90
3994;DHT22;2011;48.238;13.948;2023-05-20T10:48:23;22.90;99.90
3994;DHT22;2011;48.238;13.948;2023-05-20T10:50:53;22.90;99.90
3994;DHT22;2011;48.238;13.948;2023-05-20T10:53:21;22.90;99.90
3994;DHT22;2011;48.238;13.948;2023-05-20T10:55:50;23.00;99.90
3994;DHT22;2011;48.238;13.948;2023-05-20T10:58:18;22.90;99.40
3994;DHT22;2011;48.238;13.948;2023-05-20T11:00:46;23.10;99.40
3994;DHT22;2011;48.238;13.948;2023-05-20T11:03:14;23.30;99.40
3994;DHT22;2011;48.238;13.948;2023-05-20T11:05:44;23.40;99.10
3994;DHT22;2011;48.238;13.948;2023-05-20T11:08:12;23.50;97.70
3994;DHT22;2011;48.238;13.948;2023-05-20T11:10:40;23.40;97.20
3994;DHT22;2011;48.238;13.948;2023-05-20T11:13:07;23.40;97.60
3994;DHT22;2011;48.238;13.948;2023-05-20T11:15:34;23.20;97.80
3994;DHT22;2011;48.238;13.948;2023-05-20T11:18:03;23.20;97.80
3994;DHT22;2011;48.238;13.948;2023-05-20T11:20:30;23.30;98.60
3994;DHT22;2011;48.238;13.948;2023-05-20T11:23:01;23.50;98.40
3994;DHT22;2011;48.238;13.948;2023-05-20T11:25:29;23.70;98.10
3994;DHT22;2011;48.238;13.948;2023-05-20T11:27:56;23.70;98.20
3994;DHT22;2011;48.238;13.948;2023-05-20T11:30:23;23.60;97.60
3994;DHT22;2011;48.238;13.948;2023-05-20T11:32:57;23.50;97.90
3994;DHT22;2011;48.238;13.948;2023-05-20T11:35:26;23.30;97.70
3994;DHT22;2011;48.238;13.948;2023-05-20T11:37:55;23.20;97.70
3994;DHT22;2011;48.238;13.948;2023-05-20T11:40:25;23.20;97.60
3994;DHT22;2011;48.238;13.948;2023-05-20T11:42:53;23.30;97.30
3994;DHT22;2011;48.238;13.948;2023-05-20T11:45:21;23.60;97.80
3994;DHT22;2011;48.238;13.948;2023-05-20T11:47:58;23.70;97.50
3994;DHT22;2011;48.238;13.948;2023-05-20T11:50:26;23.90;97.70
3994;DHT22;2011;48.238;13.948;2023-05-20T11:52:59;24.10;97.70
3994;DHT22;2011;48.238;13.948;2023-05-20T11:55:30;24.30;97.50
3994;DHT22;2011;48.238;13.948;2023-05-20T11:57:59;24.40;96.80
3994;DHT22;2011;48.238;13.948;2023-05-20T12:00:26;24.50;97.10
3994;DHT22;2011;48.238;13.948;2023-05-20T12:02:53;24.60;97.00
3994;DHT22;2011;48.238;13.948;2023-05-20T12:05:21;24.60;96.60
3994;DHT22;2011;48.238;13.948;2023-05-20T12:07:48;24.60;96.30
3994;DHT22;2011;48.238;13.948;2023-05-20T12:10:15;24.60;95.50
3994;DHT22;2011;48.238;13.948;2023-05-20T12:12:43;24.50;95.20
3994;DHT22;2011;48.238;13.948;2023-05-20T12:15:11;24.80;96.00
3994;DHT22;2011;48.238;13.948;2023-05-20T12:17:45;25.00;96.10
3994;DHT22;2011;48.238;13.948;2023-05-20T12:20:14;24.90;95.10
3994;DHT22;2011;48.238;13.948;2023-05-20T12:22:42;24.80;94.70
3994;DHT22;2011;48.238;13.948;2023-05-20T12:25:10;24.60;95.40
3994;DHT22;2011;48.238;13.948;2023-05-20T12:27:37;24.50;94.70
3994;DHT22;2011;48.238;13.948;2023-05-20T12:30:07;24.40;94.80
3994;DHT22;2011;48.238;13.948;2023-05-20T12:32:35;24.20;93.40
3994;DHT22;2011;48.238;13.948;2023-05-20T12:35:02;24.20;94.00
3994;DHT22;2011;48.238;13.948;2023-05-20T12:37:29;24.10;93.90
3994;DHT22;2011;48.238;13.948;2023-05-20T12:39:56;24.10;94.20
3994;DHT22;2011;48.238;13.948;2023-05-20T12:42:23;24.10;93.90
3994;DHT22;2011;48.238;13.948;2023-05-20T12:44:50;24.10;94.50
3994;DHT22;2011;48.238;13.948;2023-05-20T12:47:19;24.10;93.90
3994;DHT22;2011;48.238;13.948;2023-05-20T12:49:46;24.10;94.10
3994;DHT22;2011;48.238;13.948;2023-05-20T12:52:14;24.20;94.40
3994;DHT22;2011;48.238;13.948;2023-05-20T12:54:40;24.40;94.40
3994;DHT22;2011;48.238;13.948;2023-05-20T12:57:07;24.60;94.10
3994;DHT22;2011;48.238;13.948;2023-05-20T12:59:34;24.80;93.90
3994;DHT22;2011;48.238;13.948;2023-05-20T13:02:01;24.80;93.10
3994;DHT22;2011;48.238;13.948;2023-05-20T13:04:29;24.70;93.20
3994;DHT22;2011;48.238;13.948;2023-05-20T13:06:56;24.50;93.00
3994;DHT22;2011;48.238;13.948;2023-05-20T13:09:23;24.40;92.60
3994;DHT22;2011;48.238;13.948;2023-05-20T13:11:50;24.20;92.80
3994;DHT22;2011;48.238;13.948;2023-05-20T13:14:17;24.00;92.50
3994;DHT22;2011;48.238;13.948;2023-05-20T13:16:44;23.80;93.20
3994;DHT22;2011;48.238;13.948;2023-05-20T13:19:11;23.70;93.20
3994;DHT22;2011;48.238;13.948;2023-05-20T13:21:39;23.60;93.50
3994;DHT22;2011;48.238;13.948;2023-05-20T13:24:06;23.60;93.60
3994;DHT22;2011;48.238;13.948;2023-05-20T13:26:33;23.70;94.50
3994;DHT22;2011;48.238;13.948;2023-05-20T13:29:00;23.70;94.20
3994;DHT22;2011;48.238;13.948;2023-05-20T13:31:28;23.70;94.50
3994;DHT22;2011;48.238;13.948;2023-05-20T13:33:54;23.70;94.60
3994;DHT22;2011;48.238;13.948;2023-05-20T13:36:24;23.80;95.30
3994;DHT22;2011;48.238;13.948;2023-05-20T13:38:52;23.80;95.60
3994;DHT22;2011;48.238;13.948;2023-05-20T13:41:19;23.90;95.40
3994;DHT22;2011;48.238;13.948;2023-05-20T13:43:46;24.00;95.50
3994;DHT22;2011;48.238;13.948;2023-05-20T13:46:13;24.10;95.60
3994;DHT22;2011;48.238;13.948;2023-05-20T13:48:41;24.00;95.40
3994;DHT22;2011;48.238;13.948;2023-05-20T13:51:08;23.90;95.40
3994;DHT22;2011;48.238;13.948;2023-05-20T13:53:35;23.90;95.60
3994;DHT22;2011;48.238;13.948;2023-05-20T13:56:03;23.90;95.30
3994;DHT22;2011;48.238;13.948;2023-05-20T13:58:33;23.80;95.30
3994;DHT22;2011;48.238;13.948;2023-05-20T14:01:01;23.80;95.80
3994;DHT22;2011;48.238;13.948;2023-05-20T14:03:28;23.70;95.20
3994;DHT22;2011;48.238;13.948;2023-05-20T14:05:56;23.70;95.60
3994;DHT22;2011;48.238;13.948;2023-05-20T14:08:22;23.70;95.10
3994;DHT22;2011;48.238;13.948;2023-05-20T14:10:49;23.70;95.40
3994;DHT22;2011;48.238;13.948;2023-05-20T14:13:20;23.70;95.40
3994;DHT22;2011;48.238;13.948;2023-05-20T14:15:47;23.80;96.10
3994;DHT22;2011;48.238;13.948;2023-05-20T14:18:15;23.90;96.30
3994;DHT22;2011;48.238;13.948;2023-05-20T14:20:42;23.80;95.80
3994;DHT22;2011;48.238;13.948;2023-05-20T14:23:09;23.70;95.60
3994;DHT22;2011;48.238;13.948;2023-05-20T14:25:36;23.60;95.90
3994;DHT22;2011;48.238;13.948;2023-05-20T14:28:03;23.60;96.20
3994;DHT22;2011;48.238;13.948;2023-05-20T14:30:31;23.60;96.20
3994;DHT22;2011;48.238;13.948;2023-05-20T14:32:58;23.60;95.90
3994;DHT22;2011;48.238;13.948;2023-05-20T14:35:25;23.60;96.60
3994;DHT22;2011;48.238;13.948;2023-05-20T14:37:52;23.60;96.60
3994;DHT22;2011;48.238;13.948;2023-05-20T14:40:19;23.60;96.60
3994;DHT22;2011;48.238;13.948;2023-05-20T14:42:45;23.60;96.80
3994;DHT22;2011;48.238;13.948;2023-05-20T14:45:12;23.60;96.70
3994;DHT22;2011;48.238;13.948;2023-05-20T14:47:40;23.60;96.60
3994;DHT22;2011;48.238;13.948;2023-05-20T14:50:08;23.60;96.50
3994;DHT22;2011;48.238;13.948;2023-05-20T14:52:35;23.60;96.60
3994;DHT22;2011;48.238;13.948;2023-05-20T14:55:02;23.70;96.70
3994;DHT22;2011;48.238;13.948;2023-05-20T14:57:29;23.70;96.70
3994;DHT22;2011;48.238;13.948;2023-05-20T14:59:56;23.80;96.60
3994;DHT22;2011;48.238;13.948;2023-05-20T15:02:23;23.90;96.30
3994;DHT22;2011;48.238;13.948;2023-05-20T15:04:51;24.00;96.20
3994;DHT22;2011;48.238;13.948;2023-05-20T15:07:18;24.10;95.90
3994;DHT22;2011;48.238;13.948;2023-05-20T15:09:44;24.00;95.80
3994;DHT22;2011;48.238;13.948;2023-05-20T15:12:11;24.20;95.90
3994;DHT22;2011;48.238;13.948;2023-05-20T15:14:38;24.30;95.80
3994;DHT22;2011;48.238;13.948;2023-05-20T15:17:05;24.40;95.20
3994;DHT22;2011;48.238;13.948;2023-05-20T15:19:33;24.30;95.20
3994;DHT22;2011;48.238;13.948;2023-05-20T15:22:02;24.40;95.30
3994;DHT22;2011;48.238;13.948;2023-05-20T15:24:29;24.30;95.10
3994;DHT22;2011;48.238;13.948;2023-05-20T15:26:56;24.30;95.30
3994;DHT22;2011;48.238;13.948;2023-05-20T15:29:22;24.20;95.00
3994;DHT22;2011;48.238;13.948;2023-05-20T15:31:49;24.10;94.60
3994;DHT22;2011;48.238;13.948;2023-05-20T15:34:17;24.00;94.80
3994;DHT22;2011;48.238;13.948;2023-05-20T15:36:44;24.10;94.70
3994;DHT22;2011;48.238;13.948;2023-05-20T15:39:12;24.20;94.80
3994;DHT22;2011;48.238;13.948;2023-05-20T15:41:39;24.10;93.80
3994;DHT22;2011;48.238;13.948;2023-05-20T15:44:07;24.30;94.50
3994;DHT22;2011;48.238;13.948;2023-05-20T15:46:34;24.30;93.70
3994;DHT22;2011;48.238;13.948;2023-05-20T15:49:00;24.50;93.90